sensor_id;sensor_type;location;lat;lon;timestamp;pressure;altitude;pressure_sealevel;temperature;humidity
69842;BME280;57138;51.326;-0.068;2023-01-27T00:00:06;101178.22;;;3.02;96.76
69842;BME280;57138;51.326;-0.068;2023-01-27T00:02:32;101195.41;;;3.08;96.48
69842;BME280;57138;51.326;-0.068;2023-01-27T00:04:58;101177.34;;;3.02;95.82
69842;BME280;57138;51.326;-0.068;2023-01-27T00:07:23;101186.53;;;3.09;96.31
69842;BME280;57138;51.326;-0.068;2023-01-27T00:09:49;101171.34;;;3.00;96.59
69842;BME280;57138;51.326;-0.068;2023-01-27T00:12:21;101176.66;;;3.00;96.15
69842;BME280;57138;51.326;-0.068;2023-01-27T00:15:09;101190.00;;;3.10;96.33
69842;BME280;57138;51.326;-0.068;2023-01-27T00:17:36;101197.81;;;3.11;96.93
69842;BME280;57138;51.326;-0.068;2023-01-27T00:20:03;101179.28;;;3.00;95.79
69842;BME280;57138;51.326;-0.068;2023-01-27T00:22:30;101188.69;;;3.04;96.31
69842;BME280;57138;51.326;-0.068;2023-01-27T00:25:14;101168.84;;;2.98;96.64
69842;BME280;57138;51.326;-0.068;2023-01-27T00:27:39;101171.97;;;3.03;97.02
69842;BME280;57138;51.326;-0.068;2023-01-27T00:30:09;101164.50;;;2.97;96.23
69842;BME280;57138;51.326;-0.068;2023-01-27T00:32:35;101165.25;;;2.99;97.00
69842;BME280;57138;51.326;-0.068;2023-01-27T00:35:19;101165.13;;;3.01;96.50
69842;BME280;57138;51.326;-0.068;2023-01-27T00:37:46;101176.41;;;3.03;97.17
69842;BME280;57138;51.326;-0.068;2023-01-27T00:40:14;101171.13;;;3.03;97.23
69842;BME280;57138;51.326;-0.068;2023-01-27T00:42:40;101157.91;;;2.92;96.92
69842;BME280;57138;51.326;-0.068;2023-01-27T00:45:06;101161.50;;;3.02;97.00
69842;BME280;57138;51.326;-0.068;2023-01-27T00:47:51;101155.75;;;2.97;96.98
69842;BME280;57138;51.326;-0.068;2023-01-27T00:50:17;101154.31;;;3.04;96.92
69842;BME280;57138;51.326;-0.068;2023-01-27T00:52:44;101152.88;;;3.00;97.21
69842;BME280;57138;51.326;-0.068;2023-01-27T00:55:10;101140.13;;;2.94;97.10
69842;BME280;57138;51.326;-0.068;2023-01-27T00:57:36;101158.03;;;3.01;96.88
69842;BME280;57138;51.326;-0.068;2023-01-27T01:00:03;101155.50;;;3.00;97.05
69842;BME280;57138;51.326;-0.068;2023-01-27T01:02:33;101150.81;;;2.92;96.74
69842;BME280;57138;51.326;-0.068;2023-01-27T01:04:58;101154.03;;;2.96;97.35
69842;BME280;57138;51.326;-0.068;2023-01-27T01:07:24;101154.03;;;2.96;96.63
69842;BME280;57138;51.326;-0.068;2023-01-27T01:09:49;101142.03;;;2.92;97.02
69842;BME280;57138;51.326;-0.068;2023-01-27T01:12:15;101143.72;;;2.93;96.92
69842;BME280;57138;51.326;-0.068;2023-01-27T01:14:41;101117.75;;;2.86;96.77
69842;BME280;57138;51.326;-0.068;2023-01-27T01:17:09;101138.19;;;2.96;96.78
69842;BME280;57138;51.326;-0.068;2023-01-27T01:19:35;101135.31;;;2.99;96.90
69842;BME280;57138;51.326;-0.068;2023-01-27T01:22:00;101128.59;;;2.95;96.55
69842;BME280;57138;51.326;-0.068;2023-01-27T01:24:26;101121.16;;;2.88;96.44
69842;BME280;57138;51.326;-0.068;2023-01-27T01:26:52;101125.34;;;2.91;96.25
69842;BME280;57138;51.326;-0.068;2023-01-27T01:29:20;101139.88;;;2.97;96.65
69842;BME280;57138;51.326;-0.068;2023-01-27T01:31:49;101120.91;;;2.92;96.15
69842;BME280;57138;51.326;-0.068;2023-01-27T01:34:15;101124.28;;;2.94;96.58
69842;BME280;57138;51.326;-0.068;2023-01-27T01:36:41;101110.34;;;2.92;96.38
69842;BME280;57138;51.326;-0.068;2023-01-27T01:39:06;101114.16;;;2.87;96.06
69842;BME280;57138;51.326;-0.068;2023-01-27T01:41:32;101113.34;;;2.87;96.13
69842;BME280;57138;51.326;-0.068;2023-01-27T01:43:57;101121.50;;;2.95;95.86
69842;BME280;57138;51.326;-0.068;2023-01-27T01:46:22;101105.75;;;2.82;95.99
69842;BME280;57138;51.326;-0.068;2023-01-27T01:48:53;101118.16;;;2.93;95.64
69842;BME280;57138;51.326;-0.068;2023-01-27T01:51:24;101103.72;;;2.86;96.08
69842;BME280;57138;51.326;-0.068;2023-01-27T01:54:02;101109.94;;;2.85;95.92
69842;BME280;57138;51.326;-0.068;2023-01-27T01:57:26;101121.88;;;2.91;95.56
69842;BME280;57138;51.326;-0.068;2023-01-27T01:59:56;101124.50;;;2.91;95.96
69842;BME280;57138;51.326;-0.068;2023-01-27T02:02:23;101110.81;;;2.85;95.11
69842;BME280;57138;51.326;-0.068;2023-01-27T02:05:02;101117.41;;;2.91;95.97
69842;BME280;57138;51.326;-0.068;2023-01-27T02:07:53;101125.34;;;2.91;95.26
69842;BME280;57138;51.326;-0.068;2023-01-27T02:10:21;101121.16;;;2.88;95.53
69842;BME280;57138;51.326;-0.068;2023-01-27T02:12:47;101120.50;;;2.85;95.47
69842;BME280;57138;51.326;-0.068;2023-01-27T02:15:12;101105.06;;;2.92;95.07
69842;BME280;57138;51.326;-0.068;2023-01-27T02:17:38;101102.03;;;2.85;94.87
69842;BME280;57138;51.326;-0.068;2023-01-27T02:23:25;101112.88;;;2.93;94.88
69842;BME280;57138;51.326;-0.068;2023-01-27T02:26:17;101111.19;;;2.92;94.65
69842;BME280;57138;51.326;-0.068;2023-01-27T02:28:44;101103.50;;;2.89;94.48
69842;BME280;57138;51.326;-0.068;2023-01-27T02:31:16;101105.28;;;2.88;94.67
69842;BME280;57138;51.326;-0.068;2023-01-27T02:33:41;101109.59;;;2.90;95.39
69842;BME280;57138;51.326;-0.068;2023-01-27T02:36:15;101096.63;;;2.86;94.91
69842;BME280;57138;51.326;-0.068;2023-01-27T02:38:47;101092.31;;;2.85;94.99
69842;BME280;57138;51.326;-0.068;2023-01-27T02:43:41;101095.69;;;2.87;95.20
69842;BME280;57138;51.326;-0.068;2023-01-27T02:46:07;101098.31;;;2.87;95.10
69842;BME280;57138;51.326;-0.068;2023-01-27T02:48:36;101111.06;;;2.94;94.63
69842;BME280;57138;51.326;-0.068;2023-01-27T02:51:01;101097.50;;;2.87;94.88
69842;BME280;57138;51.326;-0.068;2023-01-27T02:53:27;101104.31;;;2.90;95.11
69842;BME280;57138;51.326;-0.068;2023-01-27T02:55:55;101110.22;;;2.93;95.04
69842;BME280;57138;51.326;-0.068;2023-01-27T02:58:21;101108.66;;;2.91;95.22
69842;BME280;57138;51.326;-0.068;2023-01-27T03:00:46;101093.50;;;2.81;94.82
69842;BME280;57138;51.326;-0.068;2023-01-27T03:03:12;101101.69;;;2.90;95.15
69842;BME280;57138;51.326;-0.068;2023-01-27T03:05:37;101097.72;;;2.84;94.62
69842;BME280;57138;51.326;-0.068;2023-01-27T03:08:03;101112.47;;;2.86;95.05
69842;BME280;57138;51.326;-0.068;2023-01-27T03:10:29;101102.38;;;2.80;95.31
69842;BME280;57138;51.326;-0.068;2023-01-27T03:12:54;101114.88;;;2.90;95.25
69842;BME280;57138;51.326;-0.068;2023-01-27T03:15:19;101100.47;;;2.82;95.66
69842;BME280;57138;51.326;-0.068;2023-01-27T03:18:08;101101.91;;;2.86;95.48
69842;BME280;57138;51.326;-0.068;2023-01-27T03:20:38;101100.47;;;2.82;95.56
69842;BME280;57138;51.326;-0.068;2023-01-27T03:23:04;101097.31;;;2.77;94.98
69842;BME280;57138;51.326;-0.068;2023-01-27T03:25:29;101112.47;;;2.86;95.12
69842;BME280;57138;51.326;-0.068;2023-01-27T03:27:55;101103.00;;;2.84;95.56
69842;BME280;57138;51.326;-0.068;2023-01-27T03:30:21;101087.00;;;2.74;95.71
69842;BME280;57138;51.326;-0.068;2023-01-27T03:32:47;101092.91;;;2.78;95.81
69842;BME280;57138;51.326;-0.068;2023-01-27T03:35:14;101099.00;;;2.78;95.72
69842;BME280;57138;51.326;-0.068;2023-01-27T03:37:40;101101.53;;;2.80;95.96
69842;BME280;57138;51.326;-0.068;2023-01-27T03:40:24;101100.72;;;2.79;95.92
69842;BME280;57138;51.326;-0.068;2023-01-27T03:43:08;101085.09;;;2.76;95.59
69842;BME280;57138;51.326;-0.068;2023-01-27T03:45:52;101095.66;;;2.76;96.28
69842;BME280;57138;51.326;-0.068;2023-01-27T03:48:36;101092.72;;;2.68;96.39
69842;BME280;57138;51.326;-0.068;2023-01-27T03:51:07;101099.47;;;2.72;96.45
69842;BME280;57138;51.326;-0.068;2023-01-27T03:53:34;101097.31;;;2.66;96.52
69842;BME280;57138;51.326;-0.068;2023-01-27T03:56:00;101101.63;;;2.67;96.66
69842;BME280;57138;51.326;-0.068;2023-01-27T03:58:28;101091.75;;;2.58;96.61
69842;BME280;57138;51.326;-0.068;2023-01-27T04:00:56;101108.94;;;2.63;97.60
69842;BME280;57138;51.326;-0.068;2023-01-27T04:03:24;101104.63;;;2.62;97.07
69842;BME280;57138;51.326;-0.068;2023-01-27T04:06:14;101105.44;;;2.63;97.17
69842;BME280;57138;51.326;-0.068;2023-01-27T04:09:02;101090.94;;;2.57;97.46
69842;BME280;57138;51.326;-0.068;2023-01-27T04:11:28;101090.94;;;2.57;97.52
69842;BME280;57138;51.326;-0.068;2023-01-27T04:14:13;101090.06;;;2.57;97.31
69842;BME280;57138;51.326;-0.068;2023-01-27T04:16:38;101096.59;;;2.64;97.29
69842;BME280;57138;51.326;-0.068;2023-01-27T04:19:05;101076.88;;;2.57;97.36
69842;BME280;57138;51.326;-0.068;2023-01-27T04:21:31;101082.25;;;2.55;97.49
69842;BME280;57138;51.326;-0.068;2023-01-27T04:23:57;101089.13;;;2.58;97.85
69842;BME280;57138;51.326;-0.068;2023-01-27T04:26:23;101091.53;;;2.61;97.97
69842;BME280;57138;51.326;-0.068;2023-01-27T04:28:49;101088.19;;;2.59;97.84
69842;BME280;57138;51.326;-0.068;2023-01-27T04:31:15;101078.31;;;2.49;98.16
69842;BME280;57138;51.326;-0.068;2023-01-27T04:33:42;101081.66;;;2.51;98.40
69842;BME280;57138;51.326;-0.068;2023-01-27T04:36:09;101084.66;;;2.47;98.50
69842;BME280;57138;51.326;-0.068;2023-01-27T04:38:39;101077.44;;;2.49;98.76
69842;BME280;57138;51.326;-0.068;2023-01-27T04:41:09;101084.66;;;2.47;99.11
69842;BME280;57138;51.326;-0.068;2023-01-27T04:43:35;101065.28;;;2.35;98.83
69842;BME280;57138;51.326;-0.068;2023-01-27T04:46:00;101085.94;;;2.41;99.79
69842;BME280;57138;51.326;-0.068;2023-01-27T04:48:29;101081.28;;;2.45;100.00
69842;BME280;57138;51.326;-0.068;2023-01-27T04:50:54;101086.91;;;2.40;100.00
69842;BME280;57138;51.326;-0.068;2023-01-27T04:53:20;101073.47;;;2.43;100.00
69842;BME280;57138;51.326;-0.068;2023-01-27T04:55:49;101081.75;;;2.39;100.00
69842;BME280;57138;51.326;-0.068;2023-01-27T04:58:15;101096.03;;;2.47;100.00
69842;BME280;57138;51.326;-0.068;2023-01-27T05:00:43;101065.28;;;2.35;100.00
69842;BME280;57138;51.326;-0.068;2023-01-27T05:03:09;101095.19;;;2.47;100.00
69842;BME280;57138;51.326;-0.068;2023-01-27T05:05:36;101084.75;;;2.45;100.00
69842;BME280;57138;51.326;-0.068;2023-01-27T05:08:03;101078.00;;;2.41;100.00
69842;BME280;57138;51.326;-0.068;2023-01-27T05:10:29;101075.00;;;2.34;100.00
69842;BME280;57138;51.326;-0.068;2023-01-27T05:12:55;101075.84;;;2.35;100.00
69842;BME280;57138;51.326;-0.068;2023-01-27T05:15:20;101087.97;;;2.38;100.00
69842;BME280;57138;51.326;-0.068;2023-01-27T05:17:46;101091.22;;;2.41;100.00
69842;BME280;57138;51.326;-0.068;2023-01-27T05:20:11;101097.72;;;2.48;100.00
69842;BME280;57138;51.326;-0.068;2023-01-27T05:22:36;101084.88;;;2.44;100.00
69842;BME280;57138;51.326;-0.068;2023-01-27T05:25:02;101103.00;;;2.48;100.00
69842;BME280;57138;51.326;-0.068;2023-01-27T05:27:31;101092.69;;;2.45;100.00
69842;BME280;57138;51.326;-0.068;2023-01-27T05:29:56;101090.16;;;2.44;100.00
69842;BME280;57138;51.326;-0.068;2023-01-27T05:32:22;101089.09;;;2.46;100.00
69842;BME280;57138;51.326;-0.068;2023-01-27T05:34:48;101084.66;;;2.47;100.00
69842;BME280;57138;51.326;-0.068;2023-01-27T05:37:13;101087.03;;;2.39;100.00
69842;BME280;57138;51.326;-0.068;2023-01-27T05:39:41;101091.72;;;2.46;100.00
69842;BME280;57138;51.326;-0.068;2023-01-27T05:42:07;101085.69;;;2.44;100.00
69842;BME280;57138;51.326;-0.068;2023-01-27T05:44:33;101086.94;;;2.51;100.00
69842;BME280;57138;51.326;-0.068;2023-01-27T05:46:58;101090.88;;;2.46;100.00
69842;BME280;57138;51.326;-0.068;2023-01-27T05:49:24;101087.16;;;2.48;100.00
69842;BME280;57138;51.326;-0.068;2023-01-27T05:51:49;101088.00;;;2.49;100.00
69842;BME280;57138;51.326;-0.068;2023-01-27T05:54:15;101076.13;;;2.43;100.00
69842;BME280;57138;51.326;-0.068;2023-01-27T05:56:40;101089.59;;;2.51;100.00
69842;BME280;57138;51.326;-0.068;2023-01-27T05:59:06;101097.50;;;2.51;100.00
69842;BME280;57138;51.326;-0.068;2023-01-27T06:01:34;101080.19;;;2.47;100.00
69842;BME280;57138;51.326;-0.068;2023-01-27T06:04:00;101073.25;;;2.46;100.00
69842;BME280;57138;51.326;-0.068;2023-01-27T06:06:27;101088.63;;;2.53;100.00
69842;BME280;57138;51.326;-0.068;2023-01-27T06:08:53;101102.19;;;2.48;100.00
69842;BME280;57138;51.326;-0.068;2023-01-27T06:11:19;101086.22;;;2.49;100.00
69842;BME280;57138;51.326;-0.068;2023-01-27T06:13:46;101073.47;;;2.43;100.00
69842;BME280;57138;51.326;-0.068;2023-01-27T06:16:16;101064.09;;;2.39;100.00
69842;BME280;57138;51.326;-0.068;2023-01-27T06:18:45;101064.59;;;2.44;100.00
69842;BME280;57138;51.326;-0.068;2023-01-27T06:21:13;101065.44;;;2.45;100.00
69842;BME280;57138;51.326;-0.068;2023-01-27T06:23:39;101055.59;;;2.36;100.00
69842;BME280;57138;51.326;-0.068;2023-01-27T06:26:14;101076.63;;;2.48;100.00
69842;BME280;57138;51.326;-0.068;2023-01-27T06:28:41;101076.84;;;2.45;100.00
69842;BME280;57138;51.326;-0.068;2023-01-27T06:31:12;101087.16;;;2.48;100.00
69842;BME280;57138;51.326;-0.068;2023-01-27T06:33:41;101066.97;;;2.36;100.00
69842;BME280;57138;51.326;-0.068;2023-01-27T06:36:14;101080.94;;;2.49;100.00
69842;BME280;57138;51.326;-0.068;2023-01-27T06:38:41;101085.69;;;2.44;99.94
69842;BME280;57138;51.326;-0.068;2023-01-27T06:41:07;101086.94;;;2.51;100.00
69842;BME280;57138;51.326;-0.068;2023-01-27T06:43:32;101080.31;;;2.46;100.00
69842;BME280;57138;51.326;-0.068;2023-01-27T06:46:01;101095.81;;;2.50;99.94
69842;BME280;57138;51.326;-0.068;2023-01-27T06:48:27;101078.41;;;2.48;99.58
69842;BME280;57138;51.326;-0.068;2023-01-27T06:50:54;101081.88;;;2.48;99.00
69842;BME280;57138;51.326;-0.068;2023-01-27T06:53:23;101090.75;;;2.47;99.21
69842;BME280;57138;51.326;-0.068;2023-01-27T06:55:54;101085.47;;;2.47;99.40
69842;BME280;57138;51.326;-0.068;2023-01-27T06:58:23;101083.59;;;2.49;99.69
69842;BME280;57138;51.326;-0.068;2023-01-27T07:00:49;101080.19;;;2.47;99.13
69842;BME280;57138;51.326;-0.068;2023-01-27T07:03:18;101100.84;;;2.54;99.13
69842;BME280;57138;51.326;-0.068;2023-01-27T07:05:43;101093.91;;;2.53;98.82
69842;BME280;57138;51.326;-0.068;2023-01-27T07:08:09;101099.78;;;2.56;98.98
69842;BME280;57138;51.326;-0.068;2023-01-27T07:10:35;101091.28;;;2.53;98.32
69842;BME280;57138;51.326;-0.068;2023-01-27T07:13:11;101097.88;;;2.58;98.77
69842;BME280;57138;51.326;-0.068;2023-01-27T07:15:38;101098.75;;;2.59;98.93
69842;BME280;57138;51.326;-0.068;2023-01-27T07:18:04;101095.34;;;2.57;98.68
69842;BME280;57138;51.326;-0.068;2023-01-27T07:20:30;101092.22;;;2.51;98.51
69842;BME280;57138;51.326;-0.068;2023-01-27T07:22:57;101089.47;;;2.53;98.54
69842;BME280;57138;51.326;-0.068;2023-01-27T07:25:23;101088.88;;;2.49;98.00
69842;BME280;57138;51.326;-0.068;2023-01-27T07:27:48;101098.22;;;2.54;98.47
69842;BME280;57138;51.326;-0.068;2023-01-27T07:30:14;101089.09;;;2.46;98.19
69842;BME280;57138;51.326;-0.068;2023-01-27T07:32:39;101097.28;;;2.55;98.67
69842;BME280;57138;51.326;-0.068;2023-01-27T07:35:05;101107.59;;;2.58;98.38
69842;BME280;57138;51.326;-0.068;2023-01-27T07:37:31;101114.22;;;2.63;98.44
69842;BME280;57138;51.326;-0.068;2023-01-27T07:39:57;101106.66;;;2.59;98.50
69842;BME280;57138;51.326;-0.068;2023-01-27T07:42:22;101116.00;;;2.63;97.55
69842;BME280;57138;51.326;-0.068;2023-01-27T07:44:51;101109.41;;;2.57;97.62
69842;BME280;57138;51.326;-0.068;2023-01-27T07:47:16;101097.28;;;2.55;98.06
69842;BME280;57138;51.326;-0.068;2023-01-27T07:49:42;101118.44;;;2.66;97.86
69842;BME280;57138;51.326;-0.068;2023-01-27T07:52:07;101109.53;;;2.56;97.27
69842;BME280;57138;51.326;-0.068;2023-01-27T07:54:33;101125.50;;;2.65;97.82
69842;BME280;57138;51.326;-0.068;2023-01-27T07:56:59;101129.69;;;2.68;97.34
69842;BME280;57138;51.326;-0.068;2023-01-27T07:59:25;101106.88;;;2.56;97.61
69842;BME280;57138;51.326;-0.068;2023-01-27T08:01:51;101127.81;;;2.70;97.90
69842;BME280;57138;51.326;-0.068;2023-01-27T08:04:17;101130.44;;;2.70;97.71
69842;BME280;57138;51.326;-0.068;2023-01-27T08:06:42;101114.34;;;2.62;97.64
69842;BME280;57138;51.326;-0.068;2023-01-27T08:09:08;101127.81;;;2.70;97.80
69842;BME280;57138;51.326;-0.068;2023-01-27T08:11:33;101125.88;;;2.72;97.44
69842;BME280;57138;51.326;-0.068;2023-01-27T08:13:59;101125.88;;;2.72;97.89
69842;BME280;57138;51.326;-0.068;2023-01-27T08:16:24;101124.19;;;2.71;97.77
69842;BME280;57138;51.326;-0.068;2023-01-27T08:18:51;101132.41;;;2.79;97.84
69842;BME280;57138;51.326;-0.068;2023-01-27T08:21:18;101132.63;;;2.76;97.82
69842;BME280;57138;51.326;-0.068;2023-01-27T08:23:44;101135.38;;;2.75;96.83
69842;BME280;57138;51.326;-0.068;2023-01-27T08:26:10;101120.38;;;2.75;97.35
69842;BME280;57138;51.326;-0.068;2023-01-27T08:28:37;101129.75;;;2.79;97.08
69842;BME280;57138;51.326;-0.068;2023-01-27T08:31:09;101135.28;;;2.76;96.38
69842;BME280;57138;51.326;-0.068;2023-01-27T08:33:35;101144.16;;;2.86;96.46
69842;BME280;57138;51.326;-0.068;2023-01-27T08:36:04;101140.59;;;2.87;95.05
69842;BME280;57138;51.326;-0.068;2023-01-27T08:38:30;101126.03;;;2.82;95.98
69842;BME280;57138;51.326;-0.068;2023-01-27T08:40:55;101148.75;;;2.96;96.75
69842;BME280;57138;51.326;-0.068;2023-01-27T08:43:21;101135.56;;;2.96;96.82
69842;BME280;57138;51.326;-0.068;2023-01-27T08:45:50;101124.50;;;2.91;96.12
69842;BME280;57138;51.326;-0.068;2023-01-27T08:48:16;101128.25;;;2.99;96.70
69842;BME280;57138;51.326;-0.068;2023-01-27T08:50:42;101139.19;;;3.06;96.71
69842;BME280;57138;51.326;-0.068;2023-01-27T08:53:08;101127.41;;;2.99;96.61
69842;BME280;57138;51.326;-0.068;2023-01-27T08:55:33;101128.38;;;2.98;95.91
69842;BME280;57138;51.326;-0.068;2023-01-27T08:57:59;101141.59;;;2.98;96.45
69842;BME280;57138;51.326;-0.068;2023-01-27T09:00:24;101137.38;;;2.95;96.51
69842;BME280;57138;51.326;-0.068;2023-01-27T09:02:51;101166.31;;;3.08;96.41
69842;BME280;57138;51.326;-0.068;2023-01-27T09:05:17;101150.09;;;3.01;96.31
69842;BME280;57138;51.326;-0.068;2023-01-27T09:07:44;101157.34;;;3.11;96.80
69842;BME280;57138;51.326;-0.068;2023-01-27T09:10:11;101157.94;;;3.14;96.73
69842;BME280;57138;51.326;-0.068;2023-01-27T09:12:37;101161.44;;;3.15;96.57
69842;BME280;57138;51.326;-0.068;2023-01-27T09:15:02;101166.22;;;3.21;95.87
69842;BME280;57138;51.326;-0.068;2023-01-27T09:17:28;101166.97;;;3.23;96.21
69842;BME280;57138;51.326;-0.068;2023-01-27T09:19:53;101173.56;;;3.29;96.42
69842;BME280;57138;51.326;-0.068;2023-01-27T09:22:19;101167.56;;;3.27;96.02
69842;BME280;57138;51.326;-0.068;2023-01-27T09:24:47;101178.38;;;3.35;96.31
69842;BME280;57138;51.326;-0.068;2023-01-27T09:27:12;101183.69;;;3.35;95.44
69842;BME280;57138;51.326;-0.068;2023-01-27T09:29:43;101172.38;;;3.33;95.95
69842;BME280;57138;51.326;-0.068;2023-01-27T09:32:11;101170.69;;;3.32;95.89
69842;BME280;57138;51.326;-0.068;2023-01-27T09:34:49;101175.38;;;3.39;95.72
69842;BME280;57138;51.326;-0.068;2023-01-27T09:37:17;101174.22;;;3.44;94.89
69842;BME280;57138;51.326;-0.068;2023-01-27T09:39:54;101176.03;;;3.43;95.84
69842;BME280;57138;51.326;-0.068;2023-01-27T09:42:51;101172.03;;;3.49;95.69
69842;BME280;57138;51.326;-0.068;2023-01-27T09:54:44;101178.41;;;3.69;94.34
69842;BME280;57138;51.326;-0.068;2023-01-27T09:57:45;101162.78;;;3.66;94.67
69842;BME280;57138;51.326;-0.068;2023-01-27T10:11:43;101164.22;;;3.92;94.56
69842;BME280;57138;51.326;-0.068;2023-01-27T10:14:31;101175.28;;;4.09;92.79
69842;BME280;57138;51.326;-0.068;2023-01-27T10:17:17;101176.72;;;4.13;92.01
69842;BME280;57138;51.326;-0.068;2023-01-27T10:22:48;101166.47;;;4.20;92.34
69842;BME280;57138;51.326;-0.068;2023-01-27T10:25:59;101177.63;;;4.35;90.89
69842;BME280;57138;51.326;-0.068;2023-01-27T10:28:22;101173.06;;;4.37;91.68
69842;BME280;57138;51.326;-0.068;2023-01-27T11:09:40;101169.00;;;4.86;87.66
69842;BME280;57138;51.326;-0.068;2023-01-27T11:12:12;101165.38;;;4.87;87.82
69842;BME280;57138;51.326;-0.068;2023-01-27T11:15:01;101159.25;;;4.86;88.12
69842;BME280;57138;51.326;-0.068;2023-01-27T11:35:30;101141.59;;;5.18;85.45
69842;BME280;57138;51.326;-0.068;2023-01-27T11:37:56;101146.38;;;5.24;85.20
69842;BME280;57138;51.326;-0.068;2023-01-27T11:40:29;101144.56;;;5.25;84.30
69842;BME280;57138;51.326;-0.068;2023-01-27T11:43:19;101144.44;;;5.26;82.25
69842;BME280;57138;51.326;-0.068;2023-01-27T11:45:51;101142.78;;;5.25;84.13
69842;BME280;57138;51.326;-0.068;2023-01-27T11:48:22;101125.16;;;5.24;84.25
69842;BME280;57138;51.326;-0.068;2023-01-27T11:50:47;101125.75;;;5.28;83.90
69842;BME280;57138;51.326;-0.068;2023-01-27T11:53:21;101133.31;;;5.32;83.02
69842;BME280;57138;51.326;-0.068;2023-01-27T11:56:04;101134.09;;;5.23;80.48
69842;BME280;57138;51.326;-0.068;2023-01-27T11:58:39;101117.91;;;5.26;81.81
69842;BME280;57138;51.326;-0.068;2023-01-27T12:20:49;101108.47;;;5.33;77.08
69842;BME280;57138;51.326;-0.068;2023-01-27T12:23:30;101115.16;;;5.37;81.24
69842;BME280;57138;51.326;-0.068;2023-01-27T12:26:08;101118.56;;;5.39;80.54
69842;BME280;57138;51.326;-0.068;2023-01-27T12:28:42;101112.97;;;5.43;78.57
69842;BME280;57138;51.326;-0.068;2023-01-27T12:31:30;101124.72;;;5.50;79.62
69842;BME280;57138;51.326;-0.068;2023-01-27T12:34:06;101137.03;;;5.51;79.77
69842;BME280;57138;51.326;-0.068;2023-01-27T12:36:39;101115.38;;;5.46;79.44
69842;BME280;57138;51.326;-0.068;2023-01-27T12:39:25;101119.88;;;5.55;79.68
69842;BME280;57138;51.326;-0.068;2023-01-27T12:41:52;101110.94;;;5.56;80.09
69842;BME280;57138;51.326;-0.068;2023-01-27T12:44:19;101114.19;;;5.60;77.99
69842;BME280;57138;51.326;-0.068;2023-01-27T12:47:20;101118.09;;;5.65;76.43
69842;BME280;57138;51.326;-0.068;2023-01-27T12:49:47;101097.41;;;5.59;78.57
69842;BME280;57138;51.326;-0.068;2023-01-27T12:52:20;101114.34;;;5.68;78.44
69842;BME280;57138;51.326;-0.068;2023-01-27T12:54:46;101110.97;;;5.66;78.90
69842;BME280;57138;51.326;-0.068;2023-01-27T12:57:21;101113.91;;;5.63;78.21
69842;BME280;57138;51.326;-0.068;2023-01-27T12:59:54;101113.63;;;5.66;77.38
69842;BME280;57138;51.326;-0.068;2023-01-27T13:02:24;101109.03;;;5.68;79.58
69842;BME280;57138;51.326;-0.068;2023-01-27T13:04:51;101110.00;;;5.67;77.43
69842;BME280;57138;51.326;-0.068;2023-01-27T13:07:19;101107.47;;;5.65;78.60
69842;BME280;57138;51.326;-0.068;2023-01-27T13:10:02;101104.13;;;5.63;77.31
69842;BME280;57138;51.326;-0.068;2023-01-27T13:12:30;101094.44;;;5.52;78.66
69842;BME280;57138;51.326;-0.068;2023-01-27T13:15:05;101114.03;;;5.61;77.92
69842;BME280;57138;51.326;-0.068;2023-01-27T13:17:36;101101.59;;;5.62;78.49
69842;BME280;57138;51.326;-0.068;2023-01-27T13:22:46;101090.25;;;5.50;76.63
69842;BME280;57138;51.326;-0.068;2023-01-27T13:25:19;101101.03;;;5.58;77.67
69842;BME280;57138;51.326;-0.068;2023-01-27T13:27:47;101083.16;;;5.50;77.44
69842;BME280;57138;51.326;-0.068;2023-01-27T13:30:27;101099.91;;;5.61;74.73
69842;BME280;57138;51.326;-0.068;2023-01-27T13:32:58;101094.47;;;5.62;77.22
69842;BME280;57138;51.326;-0.068;2023-01-27T13:35:36;101084.84;;;5.61;78.02
69842;BME280;57138;51.326;-0.068;2023-01-27T13:38:19;101093.38;;;5.65;77.63
69842;BME280;57138;51.326;-0.068;2023-01-27T13:40:46;101083.44;;;5.57;77.98
69842;BME280;57138;51.326;-0.068;2023-01-27T13:43:25;101076.16;;;5.59;77.38
69842;BME280;57138;51.326;-0.068;2023-01-27T13:45:57;101079.81;;;5.58;76.00
69842;BME280;57138;51.326;-0.068;2023-01-27T13:48:37;101088.34;;;5.62;77.70
69842;BME280;57138;51.326;-0.068;2023-01-27T13:51:08;101085.41;;;5.65;76.57
69842;BME280;57138;51.326;-0.068;2023-01-27T13:53:35;101095.91;;;5.66;75.79
69842;BME280;57138;51.326;-0.068;2023-01-27T14:04:47;101084.03;;;5.70;74.21
69842;BME280;57138;51.326;-0.068;2023-01-27T14:26:10;101116.16;;;5.67;72.88
69842;BME280;57138;51.326;-0.068;2023-01-27T14:31:21;101109.28;;;5.65;74.00
69842;BME280;57138;51.326;-0.068;2023-01-27T14:36:55;101113.91;;;5.63;73.06
69842;BME280;57138;51.326;-0.068;2023-01-27T14:45:20;101125.63;;;5.60;74.74
69842;BME280;57138;51.326;-0.068;2023-01-27T14:48:28;101124.91;;;5.58;74.82
69842;BME280;57138;51.326;-0.068;2023-01-27T14:56:45;101135.06;;;5.53;74.78
69842;BME280;57138;51.326;-0.068;2023-01-27T15:06:05;101135.06;;;5.53;75.37
69842;BME280;57138;51.326;-0.068;2023-01-27T15:10:54;101121.38;;;5.48;74.70
69842;BME280;57138;51.326;-0.068;2023-01-27T15:16:34;101149.88;;;5.55;74.31
69842;BME280;57138;51.326;-0.068;2023-01-27T15:27:42;101138.25;;;5.47;74.24
69842;BME280;57138;51.326;-0.068;2023-01-27T15:30:24;101130.81;;;5.40;73.87
69842;BME280;57138;51.326;-0.068;2023-01-27T15:32:51;101136.13;;;5.40;73.40
69842;BME280;57138;51.326;-0.068;2023-01-27T15:35:38;101144.34;;;5.37;73.51
69842;BME280;57138;51.326;-0.068;2023-01-27T15:43:31;101150.03;;;5.33;73.13
69842;BME280;57138;51.326;-0.068;2023-01-27T15:46:36;101156.22;;;5.33;71.53
69842;BME280;57138;51.326;-0.068;2023-01-27T15:49:11;101150.91;;;5.33;72.67
69842;BME280;57138;51.326;-0.068;2023-01-27T15:51:40;101146.13;;;5.27;72.22
69842;BME280;57138;51.326;-0.068;2023-01-27T15:54:15;101158.13;;;5.31;72.59
69842;BME280;57138;51.326;-0.068;2023-01-27T15:56:49;101148.50;;;5.30;73.45
69842;BME280;57138;51.326;-0.068;2023-01-27T15:59:27;101142.22;;;5.31;72.89
69842;BME280;57138;51.326;-0.068;2023-01-27T16:02:29;101144.16;;;5.29;72.84